Time;durP1;ratioP1;P1;durP2;ratioP2;P2;SDS_P1;SDS_P2;PMS_P1;PMS_P2;Temp;Humidity;BMP_temperature;BMP_pressure;BME280_temperature;BME280_humidity;BME280_pressure;Samples;Min_cycle;Max_cycle;Signal;HPM_P1;HPM_P2
2022/07/23 00:00:16;;;;;;;2.78;1.10;;;;;;;18.35;58.63;100456.25;5080871;28;20036;-50
2022/07/23 00:02:43;;;;;;;2.97;1.38;;;;;;;18.34;59.09;100452.75;5086517;28;20044;-50
2022/07/23 00:05:11;;;;;;;4.38;1.30;;;;;;;18.36;59.02;100455.34;5083095;28;20051;-46
2022/07/23 00:07:38;;;;;;;3.50;1.45;;;;;;;18.37;59.67;100449.19;5089522;28;20055;-46
2022/07/23 00:10:06;;;;;;;3.92;1.30;;;;;;;18.35;59.33;100448.38;5100590;27;20504;-48
2022/07/23 00:12:32;;;;;;;4.57;1.52;;;;;;;18.37;59.75;100454.44;5094469;28;20097;-46
2022/07/23 00:15:00;;;;;;;3.50;1.30;;;;;;;18.39;59.02;100451.75;5090131;28;20100;-45
2022/07/23 00:17:26;;;;;;;4.63;1.42;;;;;;;18.42;58.77;100457.78;5105653;27;20048;-47
2022/07/23 00:19:53;;;;;;;3.15;1.63;;;;;;;18.47;58.95;100452.38;5081320;28;20055;-44
2022/07/23 00:22:20;;;;;;;3.13;1.40;;;;;;;18.52;58.97;100457.50;5102225;28;20055;-50
2022/07/23 00:24:47;;;;;;;4.30;1.17;;;;;;;18.55;59.43;100458.31;5088337;28;20043;-46
2022/07/23 00:27:33;;;;;;;3.22;1.20;;;;;;;18.56;58.92;100448.66;5083554;28;20107;-51
2022/07/23 00:30:00;;;;;;;11.68;1.52;;;;;;;18.55;58.81;100447.81;5083776;28;20052;-47
2022/07/23 00:32:27;;;;;;;8.02;1.08;;;;;;;18.52;58.72;100447.88;5086456;28;20071;-46
2022/07/23 00:35:14;;;;;;;2.55;1.10;;;;;;;18.44;59.62;100450.72;5083543;28;20088;-49
2022/07/23 00:37:41;;;;;;;2.25;1.10;;;;;;;18.44;58.93;100450.72;5080608;28;20086;-49
2022/07/23 00:40:08;;;;;;;4.55;1.33;;;;;;;18.40;59.95;100443.84;5079674;28;20047;-47
2022/07/23 00:42:34;;;;;;;2.67;1.77;;;;;;;18.34;60.06;100444.06;5085275;28;20173;-47
2022/07/23 00:45:01;;;;;;;3.40;1.40;;;;;;;18.30;59.23;100442.41;5083113;27;20071;-50
2022/07/23 00:47:28;;;;;;;2.53;1.35;;;;;;;18.26;59.48;100435.53;5089752;28;20773;-44
2022/07/23 00:49:55;;;;;;;7.28;1.83;;;;;;;18.22;59.29;100440.00;5107031;28;20112;-47
2022/07/23 00:52:21;;;;;;;4.65;1.30;;;;;;;18.16;59.51;100435.78;5084927;28;20051;-45
2022/07/23 00:54:49;;;;;;;3.17;1.23;;;;;;;18.07;60.45;100420.31;5080082;28;20097;-47
2022/07/23 00:57:16;;;;;;;4.28;1.30;;;;;;;18.02;59.97;100414.31;5083800;28;20040;-46
2022/07/23 00:59:43;;;;;;;2.53;1.02;;;;;;;17.95;60.58;100419.75;5082695;28;20439;-46
2022/07/23 01:02:10;;;;;;;4.28;1.38;;;;;;;17.91;60.29;100410.25;5085185;28;20048;-46
2022/07/23 01:04:37;;;;;;;6.38;1.60;;;;;;;17.89;60.68;100411.16;5086719;28;20060;-45
2022/07/23 01:07:03;;;;;;;4.78;1.25;;;;;;;17.89;60.54;100416.41;5087726;28;20044;-48
2022/07/23 01:09:31;;;;;;;4.43;1.38;;;;;;;17.92;60.68;100417.19;5084945;28;20044;-45
2022/07/23 01:11:58;;;;;;;2.33;1.40;;;;;;;17.96;60.32;100416.22;5084136;28;20130;-47
2022/07/23 01:14:26;;;;;;;5.03;1.30;;;;;;;17.99;60.88;100413.50;5097710;28;20052;-45
2022/07/23 01:16:53;;;;;;;2.58;1.30;;;;;;;18.02;59.89;100411.69;5085387;28;20043;-48
2022/07/23 01:19:20;;;;;;;3.00;1.25;;;;;;;18.00;60.79;100403.88;5104977;28;20570;-48
2022/07/23 01:21:49;;;;;;;4.05;1.55;;;;;;;17.97;60.69;100393.50;5072277;28;20109;-46
2022/07/23 01:24:19;;;;;;;3.67;1.58;;;;;;;17.91;60.63;100396.28;5085926;28;20052;-46
2022/07/23 01:26:47;;;;;;;4.72;1.67;;;;;;;17.85;61.13;100395.56;5085064;28;20112;-46
2022/07/23 01:29:14;;;;;;;3.63;1.20;;;;;;;17.81;61.22;100395.69;5083861;28;20059;-48
2022/07/23 01:31:41;;;;;;;4.97;1.30;;;;;;;17.78;61.83;100393.13;5085852;28;20040;-47
2022/07/23 01:34:09;;;;;;;3.47;1.58;;;;;;;17.74;61.98;100397.63;5084766;28;20052;-47
2022/07/23 01:36:37;;;;;;;2.95;1.23;;;;;;;17.71;61.24;100393.31;5081634;27;20052;-48
2022/07/23 01:39:05;;;;;;;4.15;1.10;;;;;;;17.71;61.81;100390.69;5085197;28;20060;-45
2022/07/23 01:41:33;;;;;;;3.05;1.60;;;;;;;17.73;62.24;100396.75;5084041;28;20051;-47
2022/07/23 01:44:00;;;;;;;3.90;1.42;;;;;;;17.77;61.55;100394.03;5091796;28;20095;-49
2022/07/23 01:46:27;;;;;;;5.32;1.73;;;;;;;17.81;61.03;100398.28;5088518;28;20408;-46
2022/07/23 01:48:54;;;;;;;2.53;1.30;;;;;;;17.86;61.40;100401.63;5089901;28;20066;-46
2022/07/23 01:51:21;;;;;;;5.03;1.52;;;;;;;17.89;61.18;100396.31;5085343;28;20048;-49
2022/07/23 01:53:47;;;;;;;4.90;1.58;;;;;;;17.87;61.17;100392.91;5088359;28;20181;-46
2022/07/23 01:56:15;;;;;;;5.00;1.88;;;;;;;17.90;61.13;100387.53;5088314;28;20121;-51
2022/07/23 01:58:41;;;;;;;5.22;1.67;;;;;;;17.91;61.28;100389.28;5087952;28;20040;-45
2022/07/23 02:01:08;;;;;;;4.35;1.83;;;;;;;17.90;61.52;100395.41;5079912;28;20097;-45
2022/07/23 02:03:35;;;;;;;5.07;2.00;;;;;;;17.90;61.46;100384.94;5087145;28;20403;-49
2022/07/23 02:06:01;;;;;;;2.97;1.52;;;;;;;17.90;61.74;100398.03;5087106;27;20120;-48
2022/07/23 02:08:28;;;;;;;8.10;2.22;;;;;;;17.90;62.24;100392.78;5088935;28;20051;-44
2022/07/23 02:10:55;;;;;;;6.22;2.13;;;;;;;17.85;62.42;100397.31;5109049;27;20392;-49
2022/07/23 02:13:21;;;;;;;5.90;1.70;;;;;;;17.84;61.65;100392.97;5083673;28;20040;-45
2022/07/23 02:15:48;;;;;;;5.13;2.13;;;;;;;17.83;62.45;100393.84;5084173;28;20389;-47
2022/07/23 02:18:15;;;;;;;4.82;1.70;;;;;;;17.81;61.66;100393.06;5084176;28;20056;-45
2022/07/23 02:20:42;;;;;;;3.55;1.73;;;;;;;17.79;61.96;100385.25;5084776;28;20686;-44
2022/07/23 02:23:08;;;;;;;6.22;1.73;;;;;;;17.78;61.83;100383.53;5080892;28;20040;-46
2022/07/23 02:25:35;;;;;;;3.08;1.60;;;;;;;17.75;61.99;100388.84;5082326;28;20047;-48
2022/07/23 02:28:02;;;;;;;4.95;2.00;;;;;;;17.71;62.42;100387.22;5083333;28;20173;-46
2022/07/23 02:30:29;;;;;;;4.15;1.70;;;;;;;17.65;62.55;100393.47;5078971;28;20507;-45
2022/07/23 02:32:56;;;;;;;4.18;1.60;;;;;;;17.62;62.13;100393.56;5086449;28;20044;-50
2022/07/23 02:35:22;;;;;;;5.20;1.77;;;;;;;17.61;62.57;100397.06;5082290;28;20048;-46
2022/07/23 02:37:49;;;;;;;5.28;2.00;;;;;;;17.60;62.45;100392.75;5087479;28;20052;-50
2022/07/23 02:40:17;;;;;;;4.28;1.92;;;;;;;17.59;62.82;100389.25;5083195;28;20051;-48
2022/07/23 02:42:44;;;;;;;4.03;1.75;;;;;;;17.58;62.17;100397.16;5086882;28;20093;-47
2022/07/23 02:45:11;;;;;;;4.10;1.80;;;;;;;17.55;62.09;100399.84;5083446;28;20048;-43
2022/07/23 02:47:38;;;;;;;4.63;1.90;;;;;;;17.53;62.44;100388.56;5082759;28;20052;-50
2022/07/23 02:50:05;;;;;;;5.50;2.08;;;;;;;17.49;62.66;100400.03;5085252;28;20530;-47
2022/07/23 02:52:32;;;;;;;5.88;2.10;;;;;;;17.43;62.47;100393.19;5084537;28;20044;-44
2022/07/23 02:54:58;;;;;;;6.15;2.60;;;;;;;17.39;63.16;100397.63;5083340;28;20056;-48
2022/07/23 02:57:25;;;;;;;4.35;2.25;;;;;;;17.36;62.71;100392.47;5086798;28;20131;-46
2022/07/23 02:59:52;;;;;;;6.22;2.28;;;;;;;17.34;62.84;100389.03;5085871;28;20747;-46
2022/07/23 03:02:19;;;;;;;9.68;1.83;;;;;;;17.29;63.30;100386.53;5086669;28;20044;-47
2022/07/23 03:04:45;;;;;;;5.00;2.17;;;;;;;17.23;63.37;100386.72;5086985;28;20051;-47
2022/07/23 03:07:12;;;;;;;4.32;2.08;;;;;;;17.18;63.21;100393.78;5084401;28;20079;-45
2022/07/23 03:09:39;;;;;;;5.72;2.50;;;;;;;17.11;63.43;100392.22;5085215;28;20066;-48
2022/07/23 03:12:06;;;;;;;4.75;2.40;;;;;;;17.06;63.99;100392.34;5089197;28;20108;-45
2022/07/23 03:14:39;;;;;;;4.30;2.45;;;;;;;17.02;63.74;100401.16;5082388;28;20040;-45
2022/07/23 03:17:06;;;;;;;4.70;2.05;;;;;;;17.03;63.57;100405.47;5083063;28;20048;-47
2022/07/23 03:19:33;;;;;;;7.20;2.83;;;;;;;17.04;63.97;100408.06;5083325;28;20085;-49
2022/07/23 03:22:00;;;;;;;6.47;2.22;;;;;;;17.05;63.37;100406.28;5083761;28;20085;-46
2022/07/23 03:24:53;;;;;;;5.43;2.20;;;;;;;17.08;63.71;100414.09;5082782;28;20044;-50
2022/07/23 03:27:13;;;;;;;6.50;2.42;;;;;;;17.09;63.52;100405.34;5080781;28;20106;-46
2022/07/23 03:29:40;;;;;;;6.28;2.50;;;;;;;17.07;63.26;100397.56;5086533;28;20545;-44
2022/07/23 03:32:06;;;;;;;5.05;2.55;;;;;;;17.04;64.17;100396.72;5084022;28;20093;-47
2022/07/23 03:34:33;;;;;;;5.57;2.80;;;;;;;16.96;64.30;100405.59;5085625;28;20056;-47
2022/07/23 03:36:59;;;;;;;9.15;2.65;;;;;;;16.93;64.32;100410.91;5085057;28;20097;-46
2022/07/23 03:39:28;;;;;;;6.68;1.83;;;;;;;16.91;64.30;100410.09;5083000;28;20147;-46
2022/07/23 03:41:55;;;;;;;6.55;2.97;;;;;;;16.90;63.93;100421.47;5084461;28;20101;-49
2022/07/23 03:44:22;;;;;;;8.02;2.95;;;;;;;16.88;63.70;100418.00;5083304;28;20445;-44
2022/07/23 03:46:49;;;;;;;6.50;2.42;;;;;;;16.88;64.29;100417.16;5084792;28;20044;-46
2022/07/23 03:49:16;;;;;;;9.43;2.75;;;;;;;16.90;64.35;100420.59;5082440;28;20059;-47
2022/07/23 03:51:42;;;;;;;6.75;3.13;;;;;;;16.92;63.89;100417.03;5085521;27;20043;-44
2022/07/23 03:54:09;;;;;;;8.02;2.80;;;;;;;16.94;63.95;100412.66;5079080;28;20052;-45
2022/07/23 03:56:36;;;;;;;8.20;3.55;;;;;;;17.00;64.58;100410.78;5084307;28;20048;-46
2022/07/23 03:59:03;;;;;;;9.00;2.92;;;;;;;17.04;64.00;100408.06;5084457;28;20073;-46
2022/07/23 04:01:30;;;;;;;5.13;2.92;;;;;;;17.07;64.37;100396.69;5079624;28;20467;-45
2022/07/23 04:03:57;;;;;;;6.93;2.92;;;;;;;17.12;64.47;100394.81;5082762;28;20048;-46
2022/07/23 04:06:24;;;;;;;5.90;2.65;;;;;;;17.15;64.12;100389.50;5080754;28;20040;-46
2022/07/23 04:08:50;;;;;;;5.43;2.67;;;;;;;17.17;64.13;100390.34;5083172;28;20105;-45
2022/07/23 04:11:17;;;;;;;6.65;3.10;;;;;;;17.18;64.21;100391.16;5086896;28;20430;-47
2022/07/23 04:13:44;;;;;;;5.75;2.80;;;;;;;17.19;64.76;100385.06;5084276;28;20048;-45
2022/07/23 04:16:10;;;;;;;5.93;2.70;;;;;;;17.18;64.57;100389.44;5082521;28;20047;-47
2022/07/23 04:18:37;;;;;;;8.70;2.72;;;;;;;17.17;64.25;100387.72;5082246;28;20885;-45
2022/07/23 04:21:04;;;;;;;8.25;2.78;;;;;;;17.15;64.60;100384.25;5082435;28;20051;-47
2022/07/23 04:23:31;;;;;;;7.38;2.70;;;;;;;17.15;63.88;100386.88;5082409;28;20535;-45
2022/07/23 04:25:57;;;;;;;6.75;2.53;;;;;;;17.17;64.21;100386.84;5083580;28;20048;-44
2022/07/23 04:28:24;;;;;;;6.18;3.35;;;;;;;17.15;64.50;100388.63;5089028;28;20572;-47
2022/07/23 04:30:51;;;;;;;7.68;2.42;;;;;;;17.16;64.24;100396.44;5080755;28;20047;-45
2022/07/23 04:33:17;;;;;;;5.72;2.70;;;;;;;17.20;64.68;100398.09;5086284;28;20044;-48
2022/07/23 04:35:44;;;;;;;6.85;2.92;;;;;;;17.23;64.66;100396.31;5084629;28;20397;-46
2022/07/23 04:38:11;;;;;;;6.93;2.17;;;;;;;17.26;64.63;100401.47;5081794;28;20097;-44
2022/07/23 04:40:37;;;;;;;5.93;2.45;;;;;;;17.28;64.85;100395.28;5086662;28;20051;-45
2022/07/23 04:43:05;;;;;;;6.05;2.95;;;;;;;17.32;64.43;100393.44;5099178;28;20116;-44
2022/07/23 04:45:31;;;;;;;6.95;2.90;;;;;;;17.34;63.78;100396.91;5094651;28;20074;-48
2022/07/23 04:47:59;;;;;;;5.43;2.78;;;;;;;17.30;64.14;100390.03;5082080;28;20052;-47
2022/07/23 04:50:25;;;;;;;6.72;3.03;;;;;;;17.29;64.64;100401.41;5086382;28;20105;-45
2022/07/23 04:52:52;;;;;;;6.82;2.90;;;;;;;17.27;64.44;100397.94;5082512;28;20528;-49
2022/07/23 04:55:18;;;;;;;7.45;3.10;;;;;;;17.26;64.47;100402.31;5101477;28;20105;-45
2022/07/23 04:57:45;;;;;;;7.07;3.28;;;;;;;17.30;64.55;100397.88;5086476;28;20066;-46
2022/07/23 05:00:12;;;;;;;7.65;3.15;;;;;;;17.33;64.57;100393.41;5078791;28;20048;-47
2022/07/23 05:02:39;;;;;;;7.55;3.40;;;;;;;17.37;64.80;100394.19;5077910;28;20048;-46
2022/07/23 05:05:06;;;;;;;13.95;3.38;;;;;;;17.40;65.07;100391.50;5083283;28;20059;-46
2022/07/23 05:07:32;;;;;;;7.35;4.00;;;;;;;17.44;64.91;100385.28;5083695;28;20052;-47
2022/07/23 05:09:59;;;;;;;7.30;3.50;;;;;;;17.46;65.35;100378.25;5091695;28;20542;-44
2022/07/23 05:12:26;;;;;;;8.98;4.43;;;;;;;17.46;64.66;100378.25;5106798;28;20101;-45
2022/07/23 05:14:52;;;;;;;12.13;4.88;;;;;;;17.47;65.65;100374.72;5108294;28;20733;-46
2022/07/23 05:17:19;;;;;;;15.43;6.85;;;;;;;17.52;65.52;100376.34;5103994;28;20702;-48
2022/07/23 05:19:46;;;;;;;13.18;6.10;;;;;;;17.58;65.70;100379.69;5086687;28;20052;-48
2022/07/23 05:22:12;;;;;;;14.30;5.03;;;;;;;17.62;65.98;100377.84;5085050;28;20044;-46
2022/07/23 05:24:39;;;;;;;12.95;5.80;;;;;;;17.64;66.20;100386.53;5086055;28;20514;-43
2022/07/23 05:27:06;;;;;;;14.25;5.88;;;;;;;17.69;66.61;100384.63;5083676;28;20094;-45
2022/07/23 05:29:34;;;;;;;18.17;7.07;;;;;;;17.73;66.10;100394.13;5085841;27;20399;-45
2022/07/23 05:32:01;;;;;;;16.70;6.97;;;;;;;17.79;65.96;100389.59;5083943;28;20542;-44
2022/07/23 05:34:27;;;;;;;21.75;7.82;;;;;;;17.85;66.51;100395.56;5081766;28;20090;-45
2022/07/23 05:36:54;;;;;;;21.42;7.10;;;;;;;17.91;66.48;100394.53;5100981;27;20663;-47
2022/07/23 05:39:21;;;;;;;22.48;7.63;;;;;;;17.93;66.58;100387.47;5098560;27;20106;-44
2022/07/23 05:41:47;;;;;;;18.55;8.02;;;;;;;17.99;66.65;100386.44;5085975;28;20094;-46
2022/07/23 05:44:14;;;;;;;19.15;7.93;;;;;;;18.03;66.31;100392.47;5084330;28;20105;-46
2022/07/23 05:46:40;;;;;;;17.73;8.30;;;;;;;18.08;66.85;100395.81;5085434;28;20056;-46
2022/07/23 05:49:07;;;;;;;16.48;8.10;;;;;;;18.13;66.87;100403.59;5083159;28;20044;-43
2022/07/23 05:51:34;;;;;;;15.95;7.60;;;;;;;18.15;66.74;100402.63;5082025;28;20076;-44
2022/07/23 05:54:01;;;;;;;20.75;8.00;;;;;;;18.18;66.59;100402.53;5084376;28;20109;-46
2022/07/23 05:56:27;;;;;;;17.50;7.85;;;;;;;18.18;66.20;100407.78;5084947;28;20476;-50
2022/07/23 05:58:54;;;;;;;20.02;7.95;;;;;;;18.20;66.25;100407.72;5088582;28;20065;-44
2022/07/23 06:01:20;;;;;;;21.30;8.50;;;;;;;18.21;66.45;100412.91;5078949;28;20572;-46
2022/07/23 06:03:47;;;;;;;21.98;8.18;;;;;;;18.22;67.01;100419.91;5085491;28;20043;-44
2022/07/23 06:06:14;;;;;;;22.08;8.73;;;;;;;18.26;67.24;100419.78;5091973;28;20052;-44
2022/07/23 06:08:41;;;;;;;20.98;8.90;;;;;;;18.27;67.15;100421.53;5100455;27;20545;-45
2022/07/23 06:11:08;;;;;;;24.05;8.60;;;;;;;18.31;66.74;100428.41;5088038;28;20101;-44
2022/07/23 06:13:35;;;;;;;26.55;9.10;;;;;;;18.33;66.53;100421.34;5085778;28;20036;-47
2022/07/23 06:16:02;;;;;;;25.08;9.18;;;;;;;18.33;67.07;100426.56;5087673;28;20048;-46
2022/07/23 06:18:28;;;;;;;23.05;8.77;;;;;;;18.34;66.68;100423.06;5087029;28;20511;-46
2022/07/23 06:20:55;;;;;;;25.05;9.43;;;;;;;18.31;66.92;100428.41;5086670;28;20556;-44
2022/07/23 06:23:26;;;;;;;21.58;8.50;;;;;;;18.32;66.79;100436.22;5089600;28;20732;-46
2022/07/23 06:25:52;;;;;;;21.85;8.93;;;;;;;18.32;67.12;100430.13;5088012;28;20507;-47
2022/07/23 06:28:19;;;;;;;22.60;8.32;;;;;;;18.33;67.14;100421.34;5086815;28;20048;-48
2022/07/23 06:30:46;;;;;;;21.65;9.05;;;;;;;18.38;67.79;100419.47;5081572;28;21376;-48
2022/07/23 06:33:13;;;;;;;23.05;8.82;;;;;;;18.45;67.79;100425.38;5087410;28;20048;-47
2022/07/23 06:35:40;;;;;;;20.35;8.75;;;;;;;18.53;67.07;100425.13;5078660;28;20079;-45
2022/07/23 06:38:06;;;;;;;23.33;7.97;;;;;;;18.58;67.03;100425.88;5082572;28;20048;-49
2022/07/23 06:40:33;;;;;;;21.60;8.70;;;;;;;18.63;67.70;100423.94;5084899;28;20043;-49
2022/07/23 06:43:00;;;;;;;21.08;8.82;;;;;;;18.66;67.66;100418.63;5102768;28;20031;-48
2022/07/23 06:45:26;;;;;;;24.27;9.13;;;;;;;18.72;67.23;100413.19;5092499;28;20044;-47
2022/07/23 06:47:53;;;;;;;24.42;9.65;;;;;;;18.78;67.20;100411.28;5087563;28;20043;-47
2022/07/23 06:50:20;;;;;;;21.75;9.40;;;;;;;18.85;67.13;100412.81;5083820;28;20586;-45
2022/07/23 06:52:46;;;;;;;24.55;10.00;;;;;;;18.88;67.02;100417.97;5088803;28;20074;-50
2022/07/23 06:55:13;;;;;;;21.25;9.68;;;;;;;18.94;66.62;100417.75;5085946;28;20044;-48
2022/07/23 06:57:40;;;;;;;23.08;10.00;;;;;;;18.98;67.36;100414.13;5087210;28;20040;-47
2022/07/23 07:00:08;;;;;;;22.48;9.23;;;;;;;19.07;67.42;100422.63;5083103;28;20063;-45
2022/07/23 07:02:34;;;;;;;25.45;9.90;;;;;;;19.12;67.15;100416.31;5084484;28;20051;-49
2022/07/23 07:05:02;;;;;;;25.75;9.95;;;;;;;19.15;66.72;100423.22;5089756;28;20046;-47
2022/07/23 07:07:32;;;;;;;23.00;9.88;;;;;;;19.20;66.97;100413.47;5086829;28;20056;-48
2022/07/23 07:09:58;;;;;;;24.27;10.45;;;;;;;19.23;66.80;100420.38;5086800;28;20881;-47
2022/07/23 07:12:25;;;;;;;29.17;11.27;;;;;;;19.27;67.10;100408.84;5086716;28;20048;-45
2022/07/23 07:14:53;;;;;;;24.85;10.88;;;;;;;19.32;66.53;100416.59;5087257;28;20048;-47
2022/07/23 07:17:20;;;;;;;25.95;10.13;;;;;;;19.38;66.88;100413.75;5082364;28;20056;-47
2022/07/23 07:19:46;;;;;;;22.75;10.43;;;;;;;19.49;67.04;100414.22;5080774;28;20446;-47
2022/07/23 07:22:13;;;;;;;23.55;9.70;;;;;;;19.58;66.65;100420.94;5084738;27;20052;-47
2022/07/23 07:24:40;;;;;;;22.92;9.02;;;;;;;19.64;66.23;100426.00;5091002;28;21381;-48
2022/07/23 07:27:06;;;;;;;18.20;8.68;;;;;;;19.73;66.13;100422.16;5083342;28;20142;-47
2022/07/23 07:29:33;;;;;;;26.05;9.32;;;;;;;19.85;66.16;100417.38;5084061;28;20056;-48
2022/07/23 07:32:00;;;;;;;22.10;9.05;;;;;;;19.98;65.91;100423.94;5084728;28;20078;-47
2022/07/23 07:34:26;;;;;;;20.90;8.00;;;;;;;20.25;65.80;100413.34;5080802;28;20101;-46
2022/07/23 07:36:53;;;;;;;18.40;8.52;;;;;;;20.55;65.37;100415.75;5084970;28;20078;-48
2022/07/23 07:39:20;;;;;;;21.10;9.23;;;;;;;20.81;65.44;100416.47;5083321;28;20052;-50
2022/07/23 07:41:47;;;;;;;19.65;8.75;;;;;;;21.06;65.03;100422.56;5085891;28;20470;-46
2022/07/23 07:44:13;;;;;;;19.42;7.95;;;;;;;21.27;64.13;100412.91;5084486;28;20056;-48
2022/07/23 07:46:40;;;;;;;16.58;7.55;;;;;;;21.45;63.11;100415.69;5087017;28;20044;-47
2022/07/23 07:49:06;;;;;;;17.55;8.20;;;;;;;21.58;63.20;100416.88;5081067;28;20070;-49
2022/07/23 07:51:41;;;;;;;16.10;7.18;;;;;;;21.68;62.66;100412.06;5088953;28;20526;-46
2022/07/23 07:54:07;;;;;;;16.75;7.55;;;;;;;21.79;61.90;100408.97;5080851;28;20060;-49
2022/07/23 07:56:34;;;;;;;16.20;6.95;;;;;;;21.95;61.74;100414.44;5088421;28;20487;-49
2022/07/23 07:59:01;;;;;;;14.88;6.70;;;;;;;22.23;62.00;100414.97;5078689;28;20044;-44
2022/07/23 08:01:28;;;;;;;17.55;7.32;;;;;;;22.66;61.71;100408.63;5085078;28;20631;-44
2022/07/23 08:03:55;;;;;;;15.98;6.63;;;;;;;23.20;61.15;100407.78;5080724;28;20048;-48
2022/07/23 08:06:21;;;;;;;11.52;5.45;;;;;;;23.77;60.62;100409.31;5085259;28;20109;-48
2022/07/23 08:08:48;;;;;;;9.18;4.85;;;;;;;24.18;58.34;100428.41;5078579;28;20077;-47
2022/07/23 08:11:15;;;;;;;9.75;4.50;;;;;;;24.47;56.57;100420.63;5088520;28;20172;-46
2022/07/23 08:13:44;;;;;;;8.32;4.35;;;;;;;24.81;56.08;100423.19;5085699;28;20036;-49
2022/07/23 08:16:11;;;;;;;7.85;4.30;;;;;;;25.10;55.40;100424.22;5085270;28;20597;-48
2022/07/23 08:18:38;;;;;;;10.73;4.82;;;;;;;25.36;54.26;100429.75;5080312;28;20071;-47
2022/07/23 08:21:05;;;;;;;9.27;4.60;;;;;;;25.50;53.52;100428.94;5088457;28;20700;-51
2022/07/23 08:23:32;;;;;;;9.73;4.28;;;;;;;25.72;53.16;100440.06;5081914;28;20051;-46
2022/07/23 08:25:59;;;;;;;9.05;4.82;;;;;;;25.95;52.37;100430.72;5082655;28;20458;-48
2022/07/23 08:28:26;;;;;;;10.27;4.82;;;;;;;26.18;52.62;100431.94;5079464;28;20503;-49
2022/07/23 08:30:53;;;;;;;10.60;4.18;;;;;;;26.40;51.32;100425.31;5085140;28;20044;-47
2022/07/23 08:33:20;;;;;;;9.57;4.65;;;;;;;26.66;50.65;100424.56;5086124;28;20127;-51
2022/07/23 08:36:02;;;;;;;8.57;4.63;;;;;;;26.91;50.62;100423.81;5086678;28;20119;-47
2022/07/23 08:38:30;;;;;;;10.13;4.75;;;;;;;27.08;49.78;100425.41;5082885;28;20048;-46
2022/07/23 08:40:58;;;;;;;8.18;4.38;;;;;;;27.29;49.35;100416.09;5082520;28;20131;-50
2022/07/23 08:43:26;;;;;;;8.63;4.55;;;;;;;27.31;48.26;100419.47;5089102;28;20047;-51
2022/07/23 08:45:56;;;;;;;9.52;4.50;;;;;;;27.31;48.27;100416.81;5094727;27;20627;-45
2022/07/23 08:48:25;;;;;;;9.40;3.70;;;;;;;27.40;47.83;100423.31;5089024;27;20039;-52
2022/07/23 08:50:55;;;;;;;7.97;4.10;;;;;;;27.46;47.50;100428.25;5088707;28;20064;-47
2022/07/23 08:53:25;;;;;;;8.30;3.70;;;;;;;27.44;47.03;100419.50;5079052;28;20063;-45
2022/07/23 08:55:55;;;;;;;6.18;3.08;;;;;;;27.34;46.97;100429.91;5087790;28;20589;-45
2022/07/23 08:58:23;;;;;;;8.05;3.75;;;;;;;27.27;46.35;100426.81;5085178;28;20052;-44
2022/07/23 09:00:56;;;;;;;6.50;3.22;;;;;;;27.20;46.25;100429.03;5086673;28;20055;-45
2022/07/23 09:03:26;;;;;;;7.28;2.80;;;;;;;27.25;46.44;100425.22;5090313;28;20055;-45
2022/07/23 09:05:55;;;;;;;5.75;2.70;;;;;;;27.25;46.45;100427.88;5075644;28;20052;-47
2022/07/23 09:08:24;;;;;;;6.47;2.92;;;;;;;27.20;46.08;100429.03;5066596;28;20047;-46
2022/07/23 09:21:39;;;;;;;6.53;4.00;;;;;;;27.63;45.05;100428.91;5028940;27;20411;-48
2022/07/23 09:24:08;;;;;;;5.50;3.88;;;;;;;27.78;44.20;100437.63;5009692;28;20046;-49
2022/07/23 09:26:40;;;;;;;4.82;3.55;;;;;;;27.92;44.51;100434.00;5008116;28;20056;-48
2022/07/23 09:29:13;;;;;;;5.47;4.18;;;;;;;28.09;43.67;100435.47;5009920;28;20050;-49
2022/07/23 09:31:47;;;;;;;5.15;3.50;;;;;;;28.23;43.30;100429.16;4988288;28;20050;-49
2022/07/23 09:34:17;;;;;;;8.18;4.25;;;;;;;28.34;42.75;100425.78;4994437;28;20054;-51
2022/07/23 09:36:44;;;;;;;7.63;3.83;;;;;;;28.42;42.80;100431.38;5005311;28;20498;-44
2022/07/23 09:39:12;;;;;;;5.30;3.20;;;;;;;28.60;41.66;100433.66;5003036;28;20112;-47
2022/07/23 09:41:43;;;;;;;4.93;3.63;;;;;;;28.69;41.70;100426.81;5013736;28;20510;-53
2022/07/23 09:44:16;;;;;;;5.10;3.55;;;;;;;28.82;41.64;100421.44;5004625;28;20049;-50
2022/07/23 09:46:45;;;;;;;7.43;3.20;;;;;;;28.93;41.77;100424.19;5007457;28;20050;-47
2022/07/23 09:49:16;;;;;;;5.32;3.28;;;;;;;29.03;40.39;100423.47;5009259;28;20058;-45
2022/07/23 09:51:45;;;;;;;3.38;2.67;;;;;;;29.11;40.91;100421.94;5006951;28;20393;-46
2022/07/23 09:59:38;;;;;;;4.35;2.08;;;;;;;29.33;37.91;100414.13;5048762;27;20395;-46
2022/07/23 10:02:06;;;;;;;6.00;1.95;;;;;;;29.47;37.98;100416.56;5012511;28;20109;-44
2022/07/23 10:04:34;;;;;;;2.83;1.65;;;;;;;29.68;37.81;100423.06;5003470;28;20545;-49
2022/07/23 10:07:07;;;;;;;3.97;1.85;;;;;;;29.87;37.52;100422.47;5007415;28;20132;-46
2022/07/23 10:09:37;;;;;;;2.50;1.50;;;;;;;30.02;37.17;100431.91;5009355;28;20080;-47
2022/07/23 10:14:49;;;;;;;3.25;1.98;;;;;;;30.16;37.92;100415.81;5045850;27;20407;-51
2022/07/23 10:17:17;;;;;;;4.72;1.83;;;;;;;30.22;37.53;100421.50;5013932;28;20084;-47
2022/07/23 10:19:44;;;;;;;2.65;1.63;;;;;;;30.29;37.59;100421.00;5012586;28;20050;-49
2022/07/23 10:22:18;;;;;;;2.97;1.85;;;;;;;30.40;37.14;100418.31;4998821;28;20049;-47
2022/07/23 10:37:52;;;;;;;4.75;1.80;;;;;;;31.14;35.35;100413.22;5054874;27;20401;-44
2022/07/23 10:40:22;;;;;;;2.78;2.05;;;;;;;31.21;34.96;100410.84;5001747;28;20050;-51
2022/07/23 10:42:52;;;;;;;3.45;1.60;;;;;;;31.29;34.93;100409.22;5002094;28;20062;-49
2022/07/23 10:45:37;;;;;;;4.40;1.65;;;;;;;31.30;33.90;100416.28;4996982;28;20046;-47
2022/07/23 15:33:30;;;;;;;1.38;1.13;;;;;;;29.05;39.71;100275.78;5035451;27;20432;-47
2022/07/23 15:35:58;;;;;;;6.07;5.22;;;;;;;28.68;40.86;100271.44;5017911;28;20052;-50
2022/07/23 15:38:26;;;;;;;8.57;5.95;;;;;;;28.55;41.42;100270.66;5012803;28;20057;-47
2022/07/23 15:40:57;;;;;;;1.70;1.52;;;;;;;28.43;41.21;100265.28;5017332;28;20046;-50
2022/07/23 15:43:24;;;;;;;3.05;2.55;;;;;;;28.35;41.30;100265.00;5011265;28;20105;-48
2022/07/23 15:45:51;;;;;;;3.22;1.83;;;;;;;28.29;41.79;100265.44;5009507;28;20058;-49
2022/07/23 15:48:19;;;;;;;8.75;5.28;;;;;;;28.22;41.33;100273.88;5009385;28;20062;-51
2022/07/23 15:50:46;;;;;;;2.75;2.53;;;;;;;28.09;41.83;100273.06;5002673;28;20050;-47
2022/07/23 15:53:13;;;;;;;3.28;1.48;;;;;;;28.03;41.48;100270.88;5004811;28;20050;-48
2022/07/23 15:55:43;;;;;;;2.83;2.60;;;;;;;27.97;41.62;100273.00;5016107;28;20108;-50
2022/07/23 15:58:12;;;;;;;1.90;1.70;;;;;;;27.96;41.51;100260.66;5018430;28;20528;-49
2022/07/23 16:00:39;;;;;;;2.47;2.20;;;;;;;28.00;41.61;100249.81;5010590;28;20058;-48
2022/07/23 16:03:08;;;;;;;2.88;1.90;;;;;;;28.02;42.00;100251.38;5010495;28;20045;-46
2022/07/23 16:05:36;;;;;;;2.42;1.77;;;;;;;28.00;42.08;100260.44;5013754;28;20053;-47
2022/07/23 16:08:04;;;;;;;2.38;2.17;;;;;;;27.94;42.13;100246.66;5020395;28;20045;-44
2022/07/23 16:10:31;;;;;;;2.53;2.33;;;;;;;28.00;42.60;100247.16;5018845;28;20057;-47
2022/07/23 16:12:57;;;;;;;2.13;1.75;;;;;;;28.07;42.34;100245.72;5011877;28;20485;-47
2022/07/23 16:15:24;;;;;;;4.25;2.60;;;;;;;28.09;42.50;100242.00;5016812;28;20063;-50
2022/07/23 16:17:51;;;;;;;2.80;2.20;;;;;;;28.08;41.85;100242.09;5006883;28;20043;-46
2022/07/23 16:20:18;;;;;;;1.50;1.40;;;;;;;28.05;42.34;100237.00;5005160;28;20053;-53
2022/07/23 16:22:44;;;;;;;5.55;1.63;;;;;;;28.00;41.94;100236.50;5012775;28;20089;-50
2022/07/23 16:25:11;;;;;;;2.38;2.05;;;;;;;27.96;42.90;100227.88;5020439;28;20505;-53
2022/07/23 16:27:40;;;;;;;3.35;2.00;;;;;;;27.96;42.65;100228.72;5012851;28;20478;-47
2022/07/23 16:30:09;;;;;;;3.25;2.00;;;;;;;27.92;42.93;100216.63;5013921;28;20049;-47
2022/07/23 16:32:35;;;;;;;3.30;2.80;;;;;;;27.90;42.41;100218.56;4997127;28;20038;-47
2022/07/23 16:35:03;;;;;;;3.67;2.13;;;;;;;27.88;42.53;100220.47;5012466;28;20049;-47
2022/07/23 16:37:40;;;;;;;3.30;2.47;;;;;;;27.88;42.91;100215.16;5011080;28;20050;-51
2022/07/23 16:40:09;;;;;;;5.13;3.58;;;;;;;27.86;42.83;100222.38;4998998;28;21309;-47